Time;durP1;ratioP1;P1;durP2;ratioP2;P2;SDS_P1;SDS_P2;PMS_P1;PMS_P2;Temp;Humidity;BMP_temperature;BMP_pressure;BME280_temperature;BME280_humidity;BME280_pressure;Samples;Min_cycle;Max_cycle;Signal;HPM_P1;HPM_P2
2021/01/22 00:01:56;;;;;;;88.07;32.90;;;;;;;3.51;77.42;99369.30;1651965;83;27555;-76
2021/01/22 00:04:24;;;;;;;90.55;34.30;;;;;;;3.50;77.24;99357.56;1641890;84;26405;-76
2021/01/22 00:06:52;;;;;;;88.20;34.75;;;;;;;3.50;77.36;99364.19;1708204;83;26495;-76
2021/01/22 00:09:20;;;;;;;69.87;30.15;;;;;;;3.51;77.38;99360.03;1660925;85;25748;-76
2021/01/22 00:11:48;;;;;;;58.42;27.45;;;;;;;3.52;77.36;99355.08;1657256;84;25638;-76
2021/01/22 00:14:15;;;;;;;59.88;28.10;;;;;;;3.49;77.27;99351.44;1643991;84;27635;-76
2021/01/22 00:16:42;;;;;;;58.17;28.25;;;;;;;3.46;77.34;99343.86;1702538;83;25907;-76
2021/01/22 00:19:10;;;;;;;55.83;26.48;;;;;;;3.46;77.42;99361.56;1674404;85;25853;-76
2021/01/22 00:21:37;;;;;;;56.55;27.25;;;;;;;3.45;77.39;99348.81;1661816;84;26635;-76
2021/01/22 00:24:06;;;;;;;56.02;26.27;;;;;;;3.45;77.47;99352.78;1672375;84;25823;-76
2021/01/22 00:26:34;;;;;;;57.03;25.85;;;;;;;3.45;77.51;99359.89;1697382;83;27099;-76
2021/01/22 00:29:01;;;;;;;51.90;25.30;;;;;;;3.46;77.53;99347.00;1681155;84;25847;-76
2021/01/22 00:31:28;;;;;;;50.03;25.37;;;;;;;3.46;77.59;99344.36;1619808;83;25801;-76
2021/01/22 00:33:56;;;;;;;59.23;26.20;;;;;;;3.47;77.55;99344.17;1629696;84;25867;-76
2021/01/22 00:36:23;;;;;;;52.65;24.60;;;;;;;3.48;77.61;99348.97;1701549;83;25807;-76
2021/01/22 00:38:51;;;;;;;53.13;24.70;;;;;;;3.49;77.62;99340.85;1681024;83;28653;-76
2021/01/22 00:41:19;;;;;;;53.50;25.37;;;;;;;3.51;77.63;99334.88;1646491;84;25881;-76
2021/01/22 00:43:46;;;;;;;53.65;24.87;;;;;;;3.52;77.59;99330.42;1642964;84;25826;-76
2021/01/22 00:46:14;;;;;;;47.50;24.05;;;;;;;3.53;77.61;99325.47;1688885;83;26275;-76
2021/01/22 00:48:41;;;;;;;49.40;24.15;;;;;;;3.54;77.61;99334.55;1693120;84;25881;-76
2021/01/22 00:51:08;;;;;;;46.37;24.00;;;;;;;3.53;77.58;99326.27;1703191;82;27506;-76
2021/01/22 00:53:36;;;;;;;44.53;22.48;;;;;;;3.53;77.56;99328.11;1664988;85;25787;-76
2021/01/22 00:56:03;;;;;;;45.98;22.93;;;;;;;3.53;77.61;99326.80;1617493;85;26383;-76
2021/01/22 00:58:40;;;;;;;44.50;22.77;;;;;;;3.57;77.62;99315.66;1802733;77;26210;-76
2021/01/22 01:01:10;;;;;;;44.75;22.77;;;;;;;3.55;77.66;99320.83;1735544;80;26168;-76
2021/01/22 01:03:37;;;;;;;44.15;22.22;;;;;;;3.54;77.59;99320.48;1748938;79;27342;-76
2021/01/22 01:06:05;;;;;;;44.67;21.12;;;;;;;3.55;77.70;99315.00;1678263;83;25907;-76
2021/01/22 01:08:34;;;;;;;45.98;20.77;;;;;;;3.57;77.70;99315.66;1666084;85;25745;-76
2021/01/22 01:11:06;;;;;;;47.05;23.02;;;;;;;3.56;77.54;99307.41;1646602;85;25985;-76
2021/01/22 01:13:43;;;;;;;43.58;21.23;;;;;;;3.57;77.71;99311.69;1809235;77;25636;-76
2021/01/22 01:16:12;;;;;;;40.25;21.57;;;;;;;3.53;77.82;99307.73;1716054;82;25967;-76
2021/01/22 01:18:39;;;;;;;49.58;23.22;;;;;;;3.53;77.86;99294.50;1719081;80;27261;-76
2021/01/22 01:21:07;;;;;;;49.25;22.37;;;;;;;3.55;77.98;99293.83;1750924;80;26340;-76
2021/01/22 01:23:34;;;;;;;43.70;22.73;;;;;;;3.58;78.02;99294.81;1695138;80;25924;-76
2021/01/22 01:26:01;;;;;;;49.98;23.35;;;;;;;3.61;78.02;99291.00;1717300;80;25784;-76
2021/01/22 01:28:29;;;;;;;50.73;24.77;;;;;;;3.63;77.98;99289.00;1725516;80;25988;-76
2021/01/22 01:30:56;;;;;;;49.45;24.23;;;;;;;3.64;77.93;99280.88;1740230;80;27571;-76
2021/01/22 01:33:24;;;;;;;48.70;24.85;;;;;;;3.65;77.95;99280.39;1657385;82;26058;-76
2021/01/22 01:35:52;;;;;;;51.70;24.70;;;;;;;3.67;77.93;99287.65;1711594;82;25763;-76
2021/01/22 01:38:19;;;;;;;45.85;23.95;;;;;;;3.70;77.91;99286.80;1711365;80;25847;-76
2021/01/22 01:40:48;;;;;;;50.35;23.27;;;;;;;3.73;77.81;99285.13;1746240;80;26141;-76
2021/01/22 01:43:15;;;;;;;45.48;21.85;;;;;;;3.72;77.70;99281.34;1684440;80;27599;-76
2021/01/22 01:45:43;;;;;;;46.68;23.62;;;;;;;3.72;77.62;99276.84;1669897;80;26551;-76
2021/01/22 01:48:11;;;;;;;47.98;22.52;;;;;;;3.70;77.59;99284.14;1714718;80;25437;-76
2021/01/22 01:50:40;;;;;;;52.98;22.77;;;;;;;3.67;77.55;99281.86;1742712;80;26240;-76
2021/01/22 01:53:08;;;;;;;46.60;23.00;;;;;;;3.65;77.64;99275.09;1655636;80;26536;-76
2021/01/22 01:55:36;;;;;;;51.68;24.23;;;;;;;3.64;77.68;99268.96;1711313;80;27526;-76
2021/01/22 01:58:05;;;;;;;48.00;23.70;;;;;;;3.63;77.72;99268.66;1717225;80;26506;-76
2021/01/22 02:00:34;;;;;;;49.13;23.55;;;;;;;3.64;77.78;99266.31;1735178;80;25774;-76
2021/01/22 02:03:02;;;;;;;50.25;23.15;;;;;;;3.64;77.73;99270.28;1689195;82;26122;-76
2021/01/22 02:05:29;;;;;;;50.75;24.02;;;;;;;3.64;77.69;99258.37;1729380;82;26089;-76
2021/01/22 02:07:57;;;;;;;48.42;24.63;;;;;;;3.65;77.71;99265.82;1708765;80;27404;-76
2021/01/22 02:10:24;;;;;;;51.58;23.65;;;;;;;3.66;77.72;99252.89;1746457;80;25850;-76
2021/01/22 02:12:55;;;;;;;49.38;24.72;;;;;;;3.65;77.67;99252.09;1738270;80;25880;-76
2021/01/22 02:15:22;;;;;;;44.77;23.35;;;;;;;3.67;77.71;99255.88;1725600;79;25882;-76
2021/01/22 02:17:52;;;;;;;48.10;22.10;;;;;;;3.66;77.64;99253.72;1741719;80;25776;-76
2021/01/22 02:20:27;;;;;;;44.03;23.18;;;;;;;3.67;77.63;99259.84;1681914;81;27697;-76
2021/01/22 02:22:56;;;;;;;46.50;22.98;;;;;;;3.68;77.59;99253.53;1722023;80;26189;-76
2021/01/22 02:25:37;;;;;;;51.23;23.20;;;;;;;3.68;77.53;99253.53;1726953;80;26324;-76
2021/01/22 02:28:09;;;;;;;45.43;22.40;;;;;;;3.68;77.49;99253.53;1738897;80;26160;-76
2021/01/22 02:30:36;;;;;;;45.35;22.75;;;;;;;3.66;77.49;99247.10;1751135;80;26558;-76
2021/01/22 02:33:05;;;;;;;45.75;23.07;;;;;;;3.64;77.50;99251.75;1735365;81;27534;-76
2021/01/22 02:35:34;;;;;;;47.08;24.35;;;;;;;3.63;77.62;99247.97;1721471;80;26506;-76
2021/01/22 02:38:04;;;;;;;45.75;23.67;;;;;;;3.63;77.72;99242.66;1748360;80;26168;-76
2021/01/22 02:40:34;;;;;;;48.83;23.87;;;;;;;3.65;77.79;99234.05;1708375;82;25918;-76
2021/01/22 02:43:03;;;;;;;43.85;24.23;;;;;;;3.65;77.77;99247.28;1761894;80;25762;-76
2021/01/22 02:45:31;;;;;;;44.85;24.52;;;;;;;3.65;77.83;99240.66;1727729;79;27333;-76
2021/01/22 02:47:59;;;;;;;47.17;23.73;;;;;;;3.67;77.87;99234.20;1738915;80;26180;-76
2021/01/22 02:50:34;;;;;;;45.80;23.47;;;;;;;3.70;77.83;99228.53;1682158;80;25785;-76
2021/01/22 02:53:06;;;;;;;43.42;23.20;;;;;;;3.71;77.83;99224.91;1719381;81;25866;-76
2021/01/22 02:55:36;;;;;;;49.33;25.62;;;;;;;3.74;77.84;99231.67;1727682;80;25999;-76
2021/01/22 02:58:16;;;;;;;51.45;25.60;;;;;;;3.70;77.66;99219.79;1722326;80;27964;-76
2021/01/22 03:00:51;;;;;;;48.53;24.43;;;;;;;3.69;77.79;99222.93;1752687;80;26064;-76
2021/01/22 03:03:33;;;;;;;51.55;25.80;;;;;;;3.70;77.73;99219.27;1745523;80;26327;-76
2021/01/22 03:06:02;;;;;;;51.58;25.80;;;;;;;3.68;77.74;99202.73;1722777;80;25805;-76
2021/01/22 03:08:32;;;;;;;46.13;23.60;;;;;;;3.69;77.74;99208.37;1749740;80;25747;-76
2021/01/22 03:11:00;;;;;;;49.50;24.47;;;;;;;3.69;77.76;99207.53;1711656;81;28471;-76
2021/01/22 03:13:28;;;;;;;55.15;24.05;;;;;;;3.66;77.70;99203.91;1731967;80;25846;-76
2021/01/22 03:15:55;;;;;;;49.80;25.08;;;;;;;3.65;77.78;99201.78;1716994;80;26060;-76
2021/01/22 03:18:23;;;;;;;46.85;24.07;;;;;;;3.68;77.80;99200.58;1734184;80;25771;-76
2021/01/22 03:20:50;;;;;;;46.55;22.90;;;;;;;3.69;77.85;99193.80;1684639;82;26363;-76
2021/01/22 03:23:18;;;;;;;47.35;25.02;;;;;;;3.71;77.78;99196.27;1715773;80;27614;-76
2021/01/22 03:25:46;;;;;;;45.85;25.27;;;;;;;3.71;77.76;99194.45;1714232;80;26163;-76
2021/01/22 03:28:16;;;;;;;47.20;25.00;;;;;;;3.72;77.74;99196.61;1748491;80;25803;-76
2021/01/22 03:30:44;;;;;;;59.67;28.60;;;;;;;3.73;77.75;99194.27;1673674;80;25779;-76
2021/01/22 03:33:12;;;;;;;46.50;26.02;;;;;;;3.72;77.71;99195.28;1730223;82;25853;-76
2021/01/22 03:35:39;;;;;;;57.50;31.97;;;;;;;3.69;77.60;99189.83;1717672;79;27088;-76
2021/01/22 03:38:07;;;;;;;53.63;28.15;;;;;;;3.67;77.64;99188.36;1751166;80;25823;-76
2021/01/22 03:40:34;;;;;;;59.60;30.45;;;;;;;3.68;77.66;99183.36;1704043;80;25364;-76
2021/01/22 03:43:02;;;;;;;55.40;29.65;;;;;;;3.67;77.64;99177.77;1742314;80;26436;-76
2021/01/22 03:45:29;;;;;;;58.00;26.55;;;;;;;3.66;77.63;99179.58;1715745;80;25799;-76
2021/01/22 03:47:57;;;;;;;50.33;24.37;;;;;;;3.67;77.64;99166.68;1725186;80;27348;-76
2021/01/22 03:50:24;;;;;;;52.73;26.15;;;;;;;3.69;77.67;99158.55;1688224;82;26165;-76
2021/01/22 03:52:51;;;;;;;58.10;27.00;;;;;;;3.69;77.60;99164.67;1724785;82;26120;-76
2021/01/22 03:55:19;;;;;;;43.65;23.45;;;;;;;3.67;77.58;99156.58;1715107;82;25976;-76
2021/01/22 03:57:46;;;;;;;47.23;24.57;;;;;;;3.68;77.53;99158.21;1743244;80;25893;-76
2021/01/22 04:00:15;;;;;;;51.77;25.37;;;;;;;3.67;77.52;99169.82;1672310;80;27339;-76
2021/01/22 04:02:43;;;;;;;45.90;24.30;;;;;;;3.67;77.52;99171.98;1705058;82;26157;-76
2021/01/22 04:05:14;;;;;;;52.43;24.65;;;;;;;3.68;77.55;99165.66;1718170;80;25729;-76
2021/01/22 04:07:42;;;;;;;47.67;24.02;;;;;;;3.70;77.56;99164.19;1746376;80;26136;-76
2021/01/22 04:10:10;;;;;;;45.95;23.73;;;;;;;3.69;77.46;99162.52;1701718;80;25924;-76
2021/01/22 04:12:38;;;;;;;47.10;23.90;;;;;;;3.66;77.42;99152.27;1714649;80;27515;-76
2021/01/22 04:15:07;;;;;;;46.75;24.75;;;;;;;3.65;77.42;99148.83;1723594;80;25858;-76
2021/01/22 04:17:35;;;;;;;48.92;25.30;;;;;;;3.64;77.38;99148.48;1728564;81;25871;-76
2021/01/22 04:20:06;;;;;;;47.38;24.70;;;;;;;3.64;77.44;99131.28;1704923;80;26411;-76
2021/01/22 04:22:33;;;;;;;49.70;23.10;;;;;;;3.66;77.39;99129.77;1728857;80;26215;-76
2021/01/22 04:25:01;;;;;;;50.08;24.27;;;;;;;3.67;77.39;99128.78;1719684;80;27323;-76
2021/01/22 04:27:28;;;;;;;49.83;23.40;;;;;;;3.69;77.34;99134.72;1742960;80;26202;-76
2021/01/22 04:29:56;;;;;;;41.35;22.90;;;;;;;3.67;77.22;99136.23;1708931;81;25757;-76
2021/01/22 04:32:23;;;;;;;43.68;22.65;;;;;;;3.65;77.17;99137.41;1739580;80;26117;-76
2021/01/22 04:34:51;;;;;;;42.25;22.55;;;;;;;3.64;77.18;99123.34;1715694;81;26372;-76
2021/01/22 04:37:18;;;;;;;42.10;22.65;;;;;;;3.63;77.16;99112.44;1729360;81;27533;-76
2021/01/22 04:39:46;;;;;;;49.25;24.12;;;;;;;3.64;77.08;99115.39;1711928;80;25851;-76
2021/01/22 04:42:14;;;;;;;51.85;27.55;;;;;;;3.61;77.05;99113.12;1716649;80;25902;-76
2021/01/22 04:44:41;;;;;;;54.05;30.57;;;;;;;3.56;76.92;99122.58;1721380;80;25812;-76
2021/01/22 04:47:09;;;;;;;55.38;30.48;;;;;;;3.50;76.97;99121.48;1750869;79;25763;-76
2021/01/22 04:49:39;;;;;;;69.58;33.63;;;;;;;3.49;76.92;99114.52;1751875;80;28503;-76
2021/01/22 04:52:10;;;;;;;70.62;36.68;;;;;;;3.39;76.79;99108.66;1696170;81;25884;-76
2021/01/22 04:54:42;;;;;;;70.87;35.52;;;;;;;3.33;76.91;99097.95;1720186;80;25863;-76
2021/01/22 04:57:11;;;;;;;70.47;36.53;;;;;;;3.27;76.87;99087.59;1721161;80;25747;-76
2021/01/22 04:59:52;;;;;;;69.00;36.65;;;;;;;3.23;76.90;99084.95;1746016;80;25783;-76
2021/01/22 05:02:20;;;;;;;64.77;34.13;;;;;;;3.17;76.90;99084.33;1645737;85;27640;-75
2021/01/22 05:04:50;;;;;;;58.78;31.60;;;;;;;3.07;76.89;99080.62;1662604;83;26498;-76
2021/01/22 05:07:21;;;;;;;64.17;32.75;;;;;;;2.99;76.88;99085.14;1694547;83;25814;-76
2021/01/22 05:09:49;;;;;;;;;;;;;;;2.93;77.17;99085.84;1698512;83;25742;-76
2021/01/22 05:12:16;;;;;;;62.83;33.67;;;;;;;2.88;77.27;99077.60;1664865;83;25826;-75
2021/01/22 05:14:43;;;;;;;60.10;32.83;;;;;;;2.83;77.32;99079.44;1668752;82;27683;-75
2021/01/22 05:17:13;;;;;;;64.15;33.08;;;;;;;2.81;77.37;99076.15;1695175;82;26260;-76
2021/01/22 05:19:45;;;;;;;65.22;34.08;;;;;;;2.81;77.51;99086.73;1687446;82;25668;-76
2021/01/22 05:22:15;;;;;;;58.08;30.12;;;;;;;2.79;77.33;99079.96;1713592;82;25874;-76
2021/01/22 05:24:43;;;;;;;53.98;28.67;;;;;;;2.76;77.49;99079.01;1714298;82;25833;-76
2021/01/22 05:27:13;;;;;;;54.75;29.05;;;;;;;2.77;77.53;99075.34;1681800;82;27345;-76
2021/01/22 05:29:43;;;;;;;56.05;29.30;;;;;;;2.72;77.48;99077.19;1658271;83;25985;-76
2021/01/22 05:32:30;;;;;;;56.23;28.52;;;;;;;2.68;77.62;99085.14;1697808;82;25809;-76
2021/01/22 05:34:58;;;;;;;60.33;30.32;;;;;;;2.67;77.78;99088.80;1699219;82;25854;-76
2021/01/22 05:37:27;;;;;;;61.30;31.48;;;;;;;2.65;77.94;99090.77;1669326;83;26018;-76
2021/01/22 05:40:13;;;;;;;58.33;29.00;;;;;;;2.68;78.00;99086.47;1641077;83;27553;-76
2021/01/22 05:42:54;;;;;;;58.68;30.65;;;;;;;2.69;77.94;99082.02;1662997;83;25811;-76
2021/01/22 05:45:39;;;;;;;;;;;;;;;2.68;77.95;99075.89;1653313;84;26515;-76
2021/01/22 05:48:23;;;;;;;55.10;29.92;;;;;;;2.69;77.92;99079.37;1674291;84;26474;-76
2021/01/22 05:50:59;;;;;;;59.90;30.48;;;;;;;2.66;77.91;99083.17;1635287;84;26524;-76
2021/01/22 05:53:28;;;;;;;68.28;32.55;;;;;;;2.66;77.87;99091.11;1662303;84;27690;-75
2021/01/22 05:56:20;;;;;;;62.85;30.70;;;;;;;2.66;77.77;99088.95;1666652;83;25965;-76
2021/01/22 05:58:48;;;;;;;58.65;30.17;;;;;;;2.66;77.81;99095.56;1662849;83;28349;-78
2021/01/22 06:01:27;;;;;;;65.28;32.80;;;;;;;2.66;77.82;99103.49;1627927;84;25901;-78
2021/01/22 06:04:08;;;;;;;64.20;33.00;;;;;;;2.64;77.73;99091.78;1640987;86;26279;-76
2021/01/22 06:06:35;;;;;;;58.17;31.52;;;;;;;2.62;77.85;99106.16;1659060;84;28288;-77
2021/01/22 06:09:04;;;;;;;62.75;33.30;;;;;;;2.63;77.83;99097.25;1658092;84;25712;-77
2021/01/22 06:11:32;;;;;;;72.97;32.73;;;;;;;2.61;77.75;99096.08;1616464;84;25850;-77
2021/01/22 06:14:06;;;;;;;56.18;30.55;;;;;;;2.61;77.72;99097.92;1636096;86;25999;-76
2021/01/22 06:16:35;;;;;;;68.57;33.30;;;;;;;2.60;77.73;99093.61;1657456;85;26116;-76
2021/01/22 06:19:08;;;;;;;68.17;32.73;;;;;;;2.58;77.77;99088.52;1665953;84;28696;-76
2021/01/22 06:21:46;;;;;;;58.60;32.90;;;;;;;2.57;77.79;99089.48;1647498;83;25934;-76
2021/01/22 06:24:15;;;;;;;64.35;33.92;;;;;;;2.57;77.78;99097.91;1643497;84;25727;-76
2021/01/22 06:26:43;;;;;;;65.42;35.00;;;;;;;2.59;77.86;99105.20;1661259;84;26574;-76
2021/01/22 06:29:11;;;;;;;66.22;35.00;;;;;;;2.59;77.76;99114.45;1653699;84;25827;-78
2021/01/22 06:31:38;;;;;;;67.53;34.58;;;;;;;2.57;77.70;99101.87;1618698;86;27612;-79
2021/01/22 06:34:06;;;;;;;63.50;33.38;;;;;;;2.55;77.76;99111.30;1603244;85;25774;-78
2021/01/22 06:36:34;;;;;;;62.17;30.45;;;;;;;2.54;77.72;99108.36;1636925;86;25865;-77
2021/01/22 06:39:04;;;;;;;53.80;30.35;;;;;;;2.55;77.84;99107.83;1664956;84;26468;-77
2021/01/22 06:41:33;;;;;;;52.33;26.60;;;;;;;2.56;77.90;99102.40;1597646;84;26559;-77
2021/01/22 06:44:01;;;;;;;48.45;26.35;;;;;;;2.57;77.95;99096.59;1645215;84;28505;-77
2021/01/22 06:46:33;;;;;;;60.75;34.88;;;;;;;2.59;77.99;99098.59;1662967;84;25922;-77
2021/01/22 06:49:02;;;;;;;68.78;37.35;;;;;;;2.61;78.00;99097.39;1660650;84;25907;-77
2021/01/22 06:51:36;;;;;;;67.07;38.07;;;;;;;2.62;78.01;99091.12;1623361;84;26162;-77
2021/01/22 06:54:20;;;;;;;58.13;33.40;;;;;;;2.64;77.97;99091.78;1649591;84;25881;-77
2021/01/22 06:57:05;;;;;;;74.25;39.42;;;;;;;2.62;77.99;99088.48;1634700;86;27360;-77
2021/01/22 06:59:39;;;;;;;97.37;57.73;;;;;;;2.59;77.97;99082.20;1641998;84;25890;-77
2021/01/22 07:02:34;;;;;;;101.12;59.63;;;;;;;2.60;78.07;99081.23;1627649;84;26033;-77
2021/01/22 07:05:02;;;;;;;77.67;44.55;;;;;;;2.58;78.17;99084.55;1599158;87;27012;-77
2021/01/22 07:07:46;;;;;;;57.43;34.30;;;;;;;2.60;78.23;99071.98;1636310;86;25813;-77
2021/01/22 07:10:14;;;;;;;57.15;32.20;;;;;;;2.63;78.27;99067.65;1640463;86;27624;-78
2021/01/22 07:12:45;;;;;;;57.95;31.27;;;;;;;2.66;78.26;99076.56;1617540;86;25841;-75
2021/01/22 07:15:25;;;;;;;60.90;31.12;;;;;;;2.70;78.29;99070.42;1645073;85;27970;-79
2021/01/22 07:17:59;;;;;;;73.55;35.60;;;;;;;2.72;78.11;99067.10;1622896;87;35521;-83
2021/01/22 07:20:30;;;;;;;82.35;41.58;;;;;;;2.66;78.12;99058.06;1645568;86;25870;-77
2021/01/22 07:23:00;;;;;;;75.70;39.23;;;;;;;2.66;78.17;99054.59;1563285;87;27557;-76
2021/01/22 07:25:37;;;;;;;72.42;38.13;;;;;;;2.66;78.13;99059.88;1617190;87;25978;-77
2021/01/22 07:28:18;;;;;;;68.57;31.93;;;;;;;2.64;78.23;99060.05;1618055;86;25911;-78
2021/01/22 07:30:45;;;;;;;51.98;27.25;;;;;;;2.70;78.52;99055.39;1652817;85;27070;-75
2021/01/22 07:33:37;;;;;;;52.17;29.23;;;;;;;2.75;78.61;99049.59;1584756;85;26065;-77
2021/01/22 07:36:15;;;;;;;52.40;28.85;;;;;;;2.80;78.69;99045.93;1651823;85;27545;-78
2021/01/22 07:38:43;;;;;;;54.90;27.52;;;;;;;2.86;78.72;99046.55;1616938;85;26583;-79
2021/01/22 07:41:10;;;;;;;50.30;27.45;;;;;;;2.92;78.65;99046.67;1661263;84;25825;-78
2021/01/22 07:43:37;;;;;;;46.92;27.22;;;;;;;2.98;78.58;99035.88;1616817;87;25822;-78
2021/01/22 07:46:11;;;;;;;49.10;27.30;;;;;;;3.01;78.54;99031.07;1658381;85;25768;-77
2021/01/22 07:48:40;;;;;;;52.33;27.58;;;;;;;3.03;78.43;99025.59;1606375;85;27386;-77
2021/01/22 07:51:31;;;;;;;48.55;27.73;;;;;;;3.02;78.35;99024.77;1662328;85;26841;-78
2021/01/22 07:54:02;;;;;;;55.78;27.42;;;;;;;3.03;78.38;99024.27;1617745;86;34924;-78
2021/01/22 07:56:41;;;;;;;47.85;25.37;;;;;;;3.02;78.41;99023.44;1626009;86;25933;-77
2021/01/22 07:59:13;;;;;;;48.65;25.55;;;;;;;3.05;78.47;99016.48;1619725;86;25887;-77
2021/01/22 08:01:41;;;;;;;48.50;25.05;;;;;;;3.09;78.46;99014.30;1603528;89;34140;-77
2021/01/22 08:04:09;;;;;;;46.08;25.43;;;;;;;3.09;78.40;99006.36;1582010;87;25887;-77
2021/01/22 08:06:50;;;;;;;56.68;27.95;;;;;;;3.10;78.40;99002.21;1620339;86;26428;-78
2021/01/22 08:09:19;;;;;;;52.75;28.55;;;;;;;3.14;78.37;99002.70;1637164;86;26691;-78
2021/01/22 08:11:52;;;;;;;49.05;29.15;;;;;;;3.15;78.41;98992.42;1641618;87;25901;-77
2021/01/22 08:17:07;;;;;;;56.02;27.07;;;;;;;3.27;78.42;98992.33;1832472;77;25768;-77
2021/01/22 08:19:35;;;;;;;47.60;25.43;;;;;;;3.29;78.60;98990.82;1776437;78;25914;-78
2021/01/22 08:22:03;;;;;;;48.28;24.82;;;;;;;3.37;78.66;98983.62;1800665;78;27529;-77
2021/01/22 08:24:32;;;;;;;42.23;22.85;;;;;;;3.46;78.67;98977.75;1725852;78;26194;-77
2021/01/22 08:27:06;;;;;;;39.98;22.17;;;;;;;3.54;78.73;98970.55;1738609;78;25888;-78
2021/01/22 08:29:35;;;;;;;40.48;19.77;;;;;;;3.63;78.76;98964.67;1770964;78;25814;-78
2021/01/22 08:32:03;;;;;;;33.73;17.67;;;;;;;3.70;78.74;98972.21;1780411;78;25891;-77
2021/01/22 08:34:34;;;;;;;36.25;18.85;;;;;;;3.76;78.68;98974.92;1758246;78;28540;-77
2021/01/22 08:37:01;;;;;;;58.28;26.73;;;;;;;3.82;78.71;98976.03;1780347;80;25888;-82
2021/01/22 08:40:00;;;;;;;60.48;26.27;;;;;;;3.88;78.63;98973.47;1770544;79;25887;-77
2021/01/22 08:42:30;;;;;;;47.62;22.02;;;;;;;3.96;78.66;98981.81;1794711;78;26222;-78
2021/01/22 08:45:01;;;;;;;39.05;18.62;;;;;;;4.05;78.71;98972.77;1748569;79;25672;-78
2021/01/22 08:47:31;;;;;;;35.80;16.48;;;;;;;4.13;78.70;98964.70;1747542;78;28192;-78
2021/01/22 08:50:05;;;;;;;30.13;15.67;;;;;;;4.23;78.67;98969.23;1759486;78;26053;-79
2021/01/22 08:52:33;;;;;;;24.75;13.60;;;;;;;4.33;78.70;98974.22;1807995;78;25837;-77
2021/01/22 08:55:01;;;;;;;22.52;13.35;;;;;;;4.45;78.59;98972.72;1742117;78;25836;-78
2021/01/22 08:57:30;;;;;;;26.52;13.03;;;;;;;4.55;78.51;98976.73;1771282;79;25868;-77
2021/01/22 09:00:00;;;;;;;24.92;12.93;;;;;;;4.65;78.39;98964.48;1785500;78;27393;-77
2021/01/22 09:02:47;;;;;;;24.57;12.73;;;;;;;4.74;78.07;98957.23;1801966;78;26347;-79
2021/01/22 09:05:18;;;;;;;25.15;13.80;;;;;;;4.81;77.94;98956.30;1757587;78;25828;-77
2021/01/22 09:07:47;;;;;;;30.12;14.03;;;;;;;4.89;77.75;98954.83;1778464;78;25836;-78
2021/01/22 09:10:31;;;;;;;26.80;15.15;;;;;;;4.96;77.69;98958.34;1744849;78;26554;-77
2021/01/22 09:13:10;;;;;;;28.83;14.03;;;;;;;5.00;77.56;98950.34;1811115;78;27536;-76
2021/01/22 09:15:44;;;;;;;24.37;13.03;;;;;;;5.06;77.48;98949.58;1776224;78;26311;-77
2021/01/22 09:18:21;;;;;;;21.75;12.43;;;;;;;5.11;77.36;98947.14;1753621;78;26089;-76
2021/01/22 09:21:07;;;;;;;23.98;12.53;;;;;;;5.16;77.21;98938.61;1798733;78;26395;-77
2021/01/22 09:23:39;;;;;;;23.15;12.45;;;;;;;5.21;77.20;98937.53;1773705;78;25855;-74
2021/01/22 09:26:06;;;;;;;22.87;13.08;;;;;;;5.27;77.14;98930.95;1756216;78;29024;-77
2021/01/22 09:28:33;;;;;;;22.45;12.95;;;;;;;5.34;77.04;98927.02;1744057;78;25838;-76
2021/01/22 09:31:01;;;;;;;24.63;12.35;;;;;;;5.40;77.05;98919.59;1776888;78;25871;-77
2021/01/22 09:33:29;;;;;;;23.50;12.18;;;;;;;5.46;76.99;98916.16;1800468;78;25776;-77
2021/01/22 09:35:56;;;;;;;21.97;12.03;;;;;;;5.54;76.95;98924.49;1734746;78;25999;-76
2021/01/22 09:38:25;;;;;;;20.80;11.63;;;;;;;5.60;76.81;98916.56;1750266;78;27536;-77
2021/01/22 09:40:53;;;;;;;23.05;11.12;;;;;;;5.67;76.87;98906.78;1776261;78;25757;-77
2021/01/22 09:43:20;;;;;;;20.52;11.33;;;;;;;5.76;76.76;98908.77;1793160;78;25802;-79
2021/01/22 09:45:48;;;;;;;20.27;11.15;;;;;;;5.81;76.66;98911.16;1720412;79;26166;-78
2021/01/22 09:48:17;;;;;;;20.35;11.55;;;;;;;5.85;76.50;98908.95;1746230;78;25907;-80
2021/01/22 09:50:44;;;;;;;20.90;11.50;;;;;;;5.88;76.42;98916.53;1746599;78;28157;-79
2021/01/22 09:53:12;;;;;;;21.37;12.00;;;;;;;5.91;76.33;98910.80;1750895;80;25963;-78
2021/01/22 09:55:40;;;;;;;20.10;11.75;;;;;;;5.94;76.38;98901.95;1686840;82;25759;-79
2021/01/22 09:58:07;;;;;;;21.33;11.38;;;;;;;5.97;76.32;98903.37;1699546;81;25994;-79
2021/01/22 10:00:34;;;;;;;21.05;12.35;;;;;;;6.01;76.30;98900.62;1701147;81;25877;-79
2021/01/22 10:03:01;;;;;;;19.52;11.97;;;;;;;6.03;76.31;98900.73;1756942;81;27524;-79
2021/01/22 10:05:29;;;;;;;19.02;11.38;;;;;;;6.05;76.02;98893.38;1665154;80;25869;-79
2021/01/22 10:07:56;;;;;;;18.00;10.13;;;;;;;6.05;76.09;98888.06;1721182;80;25878;-78
2021/01/22 10:10:23;;;;;;;16.55;9.78;;;;;;;6.08;76.18;98874.39;1745363;80;25939;-79
2021/01/22 10:12:51;;;;;;;21.17;11.25;;;;;;;6.11;76.13;98883.30;1768952;80;25774;-79
2021/01/22 10:15:18;;;;;;;20.37;9.88;;;;;;;6.14;76.13;98868.77;1705631;80;27538;-79
2021/01/22 10:17:45;;;;;;;15.55;9.53;;;;;;;6.16;76.07;98868.89;1692390;81;26377;-79
2021/01/22 10:20:13;;;;;;;20.90;9.45;;;;;;;6.18;75.94;98864.19;1772528;78;25818;-79
2021/01/22 10:22:41;;;;;;;16.85;9.93;;;;;;;6.22;76.00;98860.10;1766678;80;25774;-79
2021/01/22 10:25:10;;;;;;;20.05;9.55;;;;;;;6.27;75.94;98854.69;1677531;82;25911;-80
2021/01/22 10:27:37;;;;;;;16.48;9.05;;;;;;;6.30;75.83;98857.78;1696316;82;27621;-80
2021/01/22 10:30:06;;;;;;;19.05;10.05;;;;;;;6.34;75.89;98860.84;1773422;78;26127;-80
2021/01/22 10:32:33;;;;;;;15.20;9.08;;;;;;;6.39;75.79;98857.08;1777376;79;25889;-80
2021/01/22 10:35:01;;;;;;;19.40;10.20;;;;;;;6.42;75.74;98859.32;1728103;78;25862;-80
2021/01/22 10:37:28;;;;;;;20.60;11.28;;;;;;;6.48;75.81;98856.67;1731432;78;26248;-80
2021/01/22 10:39:55;;;;;;;19.52;10.68;;;;;;;6.52;75.76;98865.87;1755096;78;27292;-80
2021/01/22 10:42:23;;;;;;;19.85;11.57;;;;;;;6.55;75.68;98859.34;1747897;80;26489;-80
2021/01/22 10:44:50;;;;;;;22.35;10.50;;;;;;;6.55;75.55;98866.81;1711887;81;26000;-80
2021/01/22 10:47:17;;;;;;;19.35;9.50;;;;;;;6.56;75.47;98872.45;1750166;78;25894;-79
2021/01/22 10:49:45;;;;;;;21.20;11.30;;;;;;;6.57;75.36;98866.60;1773324;79;25924;-80
2021/01/22 10:52:12;;;;;;;27.35;12.10;;;;;;;6.55;75.33;98852.19;1799757;78;27740;-79
2021/01/22 10:54:39;;;;;;;21.37;11.40;;;;;;;6.58;75.29;98855.78;1730128;78;25934;-79
2021/01/22 10:57:07;;;;;;;21.07;11.00;;;;;;;6.63;75.46;98847.98;1731911;80;26103;-79
2021/01/22 10:59:34;;;;;;;20.27;10.85;;;;;;;6.69;75.51;98843.71;1769047;78;26197;-79
2021/01/22 11:02:08;;;;;;;21.40;11.80;;;;;;;6.75;75.43;98834.40;1802059;78;25399;-79
2021/01/22 11:04:36;;;;;;;20.50;11.25;;;;;;;6.82;75.37;98837.06;1766930;80;27611;-80
2021/01/22 11:07:03;;;;;;;18.70;11.15;;;;;;;6.85;75.26;98829.48;1747878;79;25484;-80
2021/01/22 11:09:31;;;;;;;20.27;11.73;;;;;;;6.88;75.18;98839.72;1769580;79;25789;-80
2021/01/22 11:11:58;;;;;;;20.17;11.43;;;;;;;6.91;75.19;98833.97;1777559;78;25875;-80
2021/01/22 11:14:25;;;;;;;23.57;11.50;;;;;;;6.94;75.09;98837.56;1721767;78;26030;-80
2021/01/22 11:16:53;;;;;;;19.12;11.83;;;;;;;6.96;75.15;98830.69;1725193;81;28434;-79
2021/01/22 11:19:20;;;;;;;23.57;12.23;;;;;;;7.00;75.11;98827.41;1737740;80;25911;-79
2021/01/22 11:21:48;;;;;;;19.30;10.45;;;;;;;7.03;75.04;98810.22;1720495;81;25860;-79
2021/01/22 11:24:15;;;;;;;18.95;11.35;;;;;;;7.06;75.03;98811.11;1755399;78;25332;-80
2021/01/22 11:26:42;;;;;;;16.60;10.08;;;;;;;7.07;74.96;98811.44;1774270;78;26517;-79
2021/01/22 11:29:10;;;;;;;19.10;9.78;;;;;;;7.09;74.99;98812.05;1768279;79;27314;-79
2021/01/22 11:31:37;;;;;;;20.25;9.68;;;;;;;7.11;74.87;98812.66;1800243;78;26319;-80
2021/01/22 11:34:04;;;;;;;21.87;11.18;;;;;;;7.10;74.77;98803.02;1726910;78;25415;-80
2021/01/22 11:36:31;;;;;;;21.02;9.93;;;;;;;7.06;74.71;98801.00;1745371;78;25799;-79
2021/01/22 11:38:59;;;;;;;18.30;9.18;;;;;;;7.04;74.56;98801.19;1773062;78;25782;-79
2021/01/22 11:41:26;;;;;;;22.90;10.28;;;;;;;7.01;74.57;98798.42;1801350;78;28425;-79
2021/01/22 11:43:53;;;;;;;24.98;10.55;;;;;;;6.98;74.53;98791.38;1722484;78;25786;-78